Pinetown, South Africa
Current Conditions -  °F | °C
As of 11:00 AM on Saturday 25 Oct 2014 (Local Time) from FALE Reporting Station
Broken Clouds Broken Clouds  
Wind Chill: 72°   Ceiling: 4900
Heat Index: 72°   Visibility: 6mi
Dew Point: 61°   Wind: 12mph
Humidity: 69%   Direction: 70°ENE
Pressure: 30.09"   Gusts: NA
Location:  29.76°S, 30.83°E
Report Text: FALE 250900Z 07010KT 9999 FEW020 BKN049 22/16 Q1019 NOSIG
Loading
Personal Weather Stations






























Interactive Weather Map
Tropical Storm Tracking
New forecast layout! Learn more

10-Day Weather Forecast

Advertisements
Track Severe Weather on mobile